sensor_id;sensor_type;location;lat;lon;timestamp;P1;durP1;ratioP1;P2;durP2;ratioP2
33413;SDS011;60055;41.884;12.534;2023-02-03T00:00:31;134.95;;;68.05;;
33413;SDS011;60055;41.884;12.534;2023-02-03T00:02:56;131.10;;;62.65;;
33413;SDS011;60055;41.884;12.534;2023-02-03T00:05:22;128.15;;;64.18;;
33413;SDS011;60055;41.884;12.534;2023-02-03T00:07:48;130.13;;;65.63;;
33413;SDS011;60055;41.884;12.534;2023-02-03T00:10:15;130.70;;;63.92;;
33413;SDS011;60055;41.884;12.534;2023-02-03T00:12:45;123.88;;;62.15;;
33413;SDS011;60055;41.884;12.534;2023-02-03T00:15:15;121.00;;;58.58;;
33413;SDS011;60055;41.884;12.534;2023-02-03T00:17:41;112.80;;;57.15;;
33413;SDS011;60055;41.884;12.534;2023-02-03T00:20:07;116.93;;;56.15;;
33413;SDS011;60055;41.884;12.534;2023-02-03T00:22:35;114.95;;;55.75;;
33413;SDS011;60055;41.884;12.534;2023-02-03T00:25:00;104.57;;;53.58;;
33413;SDS011;60055;41.884;12.534;2023-02-03T00:27:26;108.53;;;55.15;;
33413;SDS011;60055;41.884;12.534;2023-02-03T00:29:51;116.93;;;53.97;;
33413;SDS011;60055;41.884;12.534;2023-02-03T00:32:18;113.32;;;53.97;;
33413;SDS011;60055;41.884;12.534;2023-02-03T00:34:44;110.45;;;52.03;;
33413;SDS011;60055;41.884;12.534;2023-02-03T00:37:11;106.40;;;53.17;;
33413;SDS011;60055;41.884;12.534;2023-02-03T00:39:38;107.07;;;55.08;;
33413;SDS011;60055;41.884;12.534;2023-02-03T00:42:04;101.70;;;51.67;;
33413;SDS011;60055;41.884;12.534;2023-02-03T00:44:30;105.95;;;52.38;;
33413;SDS011;60055;41.884;12.534;2023-02-03T00:46:56;104.38;;;49.85;;
33413;SDS011;60055;41.884;12.534;2023-02-03T00:49:23;92.40;;;48.13;;
33413;SDS011;60055;41.884;12.534;2023-02-03T00:51:49;98.30;;;51.00;;
33413;SDS011;60055;41.884;12.534;2023-02-03T00:54:15;99.20;;;50.05;;
33413;SDS011;60055;41.884;12.534;2023-02-03T00:56:41;100.28;;;49.33;;
33413;SDS011;60055;41.884;12.534;2023-02-03T00:59:07;104.15;;;49.83;;
33413;SDS011;60055;41.884;12.534;2023-02-03T01:01:33;93.70;;;46.63;;
33413;SDS011;60055;41.884;12.534;2023-02-03T01:03:59;92.80;;;45.25;;
33413;SDS011;60055;41.884;12.534;2023-02-03T01:06:25;88.68;;;44.67;;
33413;SDS011;60055;41.884;12.534;2023-02-03T01:08:51;83.07;;;43.97;;
33413;SDS011;60055;41.884;12.534;2023-02-03T01:11:25;87.05;;;42.42;;
33413;SDS011;60055;41.884;12.534;2023-02-03T01:13:52;74.97;;;40.08;;
33413;SDS011;60055;41.884;12.534;2023-02-03T01:16:19;75.95;;;40.53;;
33413;SDS011;60055;41.884;12.534;2023-02-03T01:18:46;87.55;;;42.65;;
33413;SDS011;60055;41.884;12.534;2023-02-03T01:21:16;84.32;;;42.42;;
33413;SDS011;60055;41.884;12.534;2023-02-03T01:23:44;72.53;;;40.45;;
33413;SDS011;60055;41.884;12.534;2023-02-03T01:26:11;84.05;;;41.65;;
33413;SDS011;60055;41.884;12.534;2023-02-03T01:28:42;78.43;;;40.45;;
33413;SDS011;60055;41.884;12.534;2023-02-03T01:31:10;74.72;;;39.05;;
33413;SDS011;60055;41.884;12.534;2023-02-03T01:33:40;68.32;;;37.08;;
33413;SDS011;60055;41.884;12.534;2023-02-03T01:36:09;75.38;;;37.03;;
33413;SDS011;60055;41.884;12.534;2023-02-03T01:38:35;60.65;;;32.55;;
33413;SDS011;60055;41.884;12.534;2023-02-03T01:41:01;66.00;;;34.35;;
33413;SDS011;60055;41.884;12.534;2023-02-03T01:43:35;63.97;;;35.55;;
33413;SDS011;60055;41.884;12.534;2023-02-03T01:46:06;71.18;;;36.33;;
33413;SDS011;60055;41.884;12.534;2023-02-03T01:48:44;66.95;;;34.38;;
33413;SDS011;60055;41.884;12.534;2023-02-03T01:51:10;63.80;;;32.97;;
33413;SDS011;60055;41.884;12.534;2023-02-03T01:53:36;71.05;;;33.80;;
33413;SDS011;60055;41.884;12.534;2023-02-03T01:56:03;61.83;;;31.45;;
33413;SDS011;60055;41.884;12.534;2023-02-03T01:58:30;65.10;;;31.20;;
33413;SDS011;60055;41.884;12.534;2023-02-03T02:01:00;56.20;;;28.50;;
33413;SDS011;60055;41.884;12.534;2023-02-03T02:06:10;62.72;;;29.90;;
33413;SDS011;60055;41.884;12.534;2023-02-03T02:08:39;54.63;;;27.00;;
33413;SDS011;60055;41.884;12.534;2023-02-03T02:11:06;46.83;;;24.92;;
33413;SDS011;60055;41.884;12.534;2023-02-03T02:13:33;43.42;;;22.70;;
33413;SDS011;60055;41.884;12.534;2023-02-03T02:26:37;36.00;;;19.60;;
33413;SDS011;60055;41.884;12.534;2023-02-03T02:32:17;36.20;;;19.45;;
33413;SDS011;60055;41.884;12.534;2023-02-03T02:37:25;32.55;;;18.35;;
33413;SDS011;60055;41.884;12.534;2023-02-03T02:40:15;33.65;;;19.13;;
33413;SDS011;60055;41.884;12.534;2023-02-03T02:48:12;33.40;;;17.95;;
33413;SDS011;60055;41.884;12.534;2023-02-03T02:51:01;37.97;;;18.40;;
33413;SDS011;60055;41.884;12.534;2023-02-03T02:53:31;33.53;;;19.02;;
33413;SDS011;60055;41.884;12.534;2023-02-03T02:56:04;36.45;;;19.13;;
33413;SDS011;60055;41.884;12.534;2023-02-03T02:58:34;34.92;;;18.55;;
33413;SDS011;60055;41.884;12.534;2023-02-03T03:01:01;31.35;;;18.25;;
33413;SDS011;60055;41.884;12.534;2023-02-03T03:03:28;31.30;;;17.75;;
33413;SDS011;60055;41.884;12.534;2023-02-03T03:05:55;37.53;;;18.85;;
33413;SDS011;60055;41.884;12.534;2023-02-03T03:08:32;37.80;;;18.55;;
33413;SDS011;60055;41.884;12.534;2023-02-03T03:11:26;35.97;;;17.90;;
33413;SDS011;60055;41.884;12.534;2023-02-03T03:13:55;30.60;;;17.52;;
33413;SDS011;60055;41.884;12.534;2023-02-03T03:16:28;35.47;;;18.25;;
33413;SDS011;60055;41.884;12.534;2023-02-03T03:19:06;34.88;;;18.20;;
33413;SDS011;60055;41.884;12.534;2023-02-03T03:21:37;34.33;;;18.25;;
33413;SDS011;60055;41.884;12.534;2023-02-03T03:24:09;37.97;;;17.88;;
33413;SDS011;60055;41.884;12.534;2023-02-03T03:26:42;34.30;;;17.45;;
33413;SDS011;60055;41.884;12.534;2023-02-03T03:32:17;33.38;;;17.63;;
33413;SDS011;60055;41.884;12.534;2023-02-03T03:34:43;30.65;;;16.77;;
33413;SDS011;60055;41.884;12.534;2023-02-03T03:37:19;32.97;;;17.23;;
33413;SDS011;60055;41.884;12.534;2023-02-03T03:39:53;30.70;;;16.02;;
33413;SDS011;60055;41.884;12.534;2023-02-03T03:47:46;38.17;;;18.15;;
33413;SDS011;60055;41.884;12.534;2023-02-03T03:50:21;43.22;;;20.35;;
33413;SDS011;60055;41.884;12.534;2023-02-03T03:52:51;32.33;;;19.65;;
33413;SDS011;60055;41.884;12.534;2023-02-03T03:55:18;38.90;;;20.58;;
33413;SDS011;60055;41.884;12.534;2023-02-03T04:00:20;39.08;;;20.60;;
33413;SDS011;60055;41.884;12.534;2023-02-03T04:02:51;39.50;;;20.83;;
33413;SDS011;60055;41.884;12.534;2023-02-03T04:05:18;39.90;;;21.58;;
33413;SDS011;60055;41.884;12.534;2023-02-03T04:07:45;39.28;;;20.45;;
33413;SDS011;60055;41.884;12.534;2023-02-03T04:10:31;40.33;;;19.90;;
33413;SDS011;60055;41.884;12.534;2023-02-03T04:12:58;35.97;;;19.77;;
33413;SDS011;60055;41.884;12.534;2023-02-03T04:15:24;40.28;;;20.90;;
33413;SDS011;60055;41.884;12.534;2023-02-03T04:17:50;43.25;;;20.48;;
33413;SDS011;60055;41.884;12.534;2023-02-03T04:20:16;40.92;;;22.40;;
33413;SDS011;60055;41.884;12.534;2023-02-03T04:22:42;43.33;;;21.45;;
33413;SDS011;60055;41.884;12.534;2023-02-03T04:25:07;40.45;;;21.52;;
33413;SDS011;60055;41.884;12.534;2023-02-03T04:27:34;39.92;;;21.38;;
33413;SDS011;60055;41.884;12.534;2023-02-03T04:30:00;43.35;;;21.95;;
33413;SDS011;60055;41.884;12.534;2023-02-03T04:32:26;39.92;;;20.67;;
33413;SDS011;60055;41.884;12.534;2023-02-03T04:34:51;44.15;;;22.50;;
33413;SDS011;60055;41.884;12.534;2023-02-03T04:37:17;40.65;;;23.13;;
33413;SDS011;60055;41.884;12.534;2023-02-03T04:39:45;41.65;;;22.65;;
33413;SDS011;60055;41.884;12.534;2023-02-03T04:42:10;45.03;;;23.52;;
33413;SDS011;60055;41.884;12.534;2023-02-03T04:44:36;42.60;;;22.75;;
33413;SDS011;60055;41.884;12.534;2023-02-03T04:47:01;41.63;;;23.48;;
33413;SDS011;60055;41.884;12.534;2023-02-03T04:49:27;43.50;;;23.30;;
33413;SDS011;60055;41.884;12.534;2023-02-03T04:51:52;41.42;;;22.95;;
33413;SDS011;60055;41.884;12.534;2023-02-03T04:54:18;37.78;;;21.58;;
33413;SDS011;60055;41.884;12.534;2023-02-03T04:56:44;41.28;;;22.05;;
33413;SDS011;60055;41.884;12.534;2023-02-03T04:59:11;39.88;;;21.92;;
33413;SDS011;60055;41.884;12.534;2023-02-03T05:01:36;40.35;;;21.40;;
33413;SDS011;60055;41.884;12.534;2023-02-03T05:04:02;40.90;;;22.67;;
33413;SDS011;60055;41.884;12.534;2023-02-03T05:06:28;38.95;;;20.85;;
33413;SDS011;60055;41.884;12.534;2023-02-03T05:08:55;38.92;;;21.35;;
33413;SDS011;60055;41.884;12.534;2023-02-03T05:11:21;44.55;;;22.60;;
33413;SDS011;60055;41.884;12.534;2023-02-03T05:13:47;41.17;;;20.98;;
33413;SDS011;60055;41.884;12.534;2023-02-03T05:16:15;45.53;;;23.25;;
33413;SDS011;60055;41.884;12.534;2023-02-03T05:18:45;42.63;;;23.25;;
33413;SDS011;60055;41.884;12.534;2023-02-03T05:21:10;55.70;;;26.52;;
33413;SDS011;60055;41.884;12.534;2023-02-03T05:23:36;49.70;;;28.35;;
33413;SDS011;60055;41.884;12.534;2023-02-03T05:26:02;55.60;;;28.27;;
33413;SDS011;60055;41.884;12.534;2023-02-03T05:28:28;50.53;;;28.42;;
33413;SDS011;60055;41.884;12.534;2023-02-03T05:30:56;53.42;;;28.60;;
33413;SDS011;60055;41.884;12.534;2023-02-03T05:33:23;64.40;;;30.08;;
33413;SDS011;60055;41.884;12.534;2023-02-03T05:35:48;56.90;;;29.77;;
33413;SDS011;60055;41.884;12.534;2023-02-03T05:38:14;53.58;;;29.08;;
33413;SDS011;60055;41.884;12.534;2023-02-03T05:40:39;54.60;;;30.65;;
33413;SDS011;60055;41.884;12.534;2023-02-03T05:43:24;52.85;;;27.67;;
33413;SDS011;60055;41.884;12.534;2023-02-03T05:45:49;53.88;;;29.15;;
33413;SDS011;60055;41.884;12.534;2023-02-03T05:48:15;59.67;;;28.92;;
33413;SDS011;60055;41.884;12.534;2023-02-03T05:50:41;53.00;;;26.58;;
33413;SDS011;60055;41.884;12.534;2023-02-03T05:53:07;48.30;;;26.10;;
33413;SDS011;60055;41.884;12.534;2023-02-03T05:55:33;54.38;;;26.45;;
33413;SDS011;60055;41.884;12.534;2023-02-03T05:57:59;50.45;;;26.95;;
33413;SDS011;60055;41.884;12.534;2023-02-03T06:00:25;48.83;;;27.83;;
33413;SDS011;60055;41.884;12.534;2023-02-03T06:02:52;56.22;;;26.63;;
33413;SDS011;60055;41.884;12.534;2023-02-03T06:05:23;52.38;;;26.63;;
33413;SDS011;60055;41.884;12.534;2023-02-03T06:07:50;57.63;;;28.00;;
33413;SDS011;60055;41.884;12.534;2023-02-03T06:10:16;50.58;;;27.20;;
33413;SDS011;60055;41.884;12.534;2023-02-03T06:12:42;54.33;;;27.30;;
33413;SDS011;60055;41.884;12.534;2023-02-03T06:15:08;54.85;;;26.58;;
33413;SDS011;60055;41.884;12.534;2023-02-03T06:17:35;58.88;;;27.45;;
33413;SDS011;60055;41.884;12.534;2023-02-03T06:20:04;54.42;;;26.42;;
33413;SDS011;60055;41.884;12.534;2023-02-03T06:22:31;53.70;;;27.42;;
33413;SDS011;60055;41.884;12.534;2023-02-03T06:24:57;51.97;;;26.02;;
33413;SDS011;60055;41.884;12.534;2023-02-03T06:27:24;54.33;;;27.30;;
33413;SDS011;60055;41.884;12.534;2023-02-03T06:29:50;52.83;;;26.77;;
33413;SDS011;60055;41.884;12.534;2023-02-03T06:32:17;56.45;;;26.98;;
33413;SDS011;60055;41.884;12.534;2023-02-03T06:34:43;50.90;;;26.65;;
33413;SDS011;60055;41.884;12.534;2023-02-03T06:37:09;51.15;;;25.50;;
33413;SDS011;60055;41.884;12.534;2023-02-03T06:39:34;57.20;;;29.98;;
33413;SDS011;60055;41.884;12.534;2023-02-03T06:42:00;48.45;;;26.70;;
33413;SDS011;60055;41.884;12.534;2023-02-03T06:44:26;48.63;;;24.50;;
33413;SDS011;60055;41.884;12.534;2023-02-03T06:46:53;53.92;;;24.55;;
33413;SDS011;60055;41.884;12.534;2023-02-03T06:49:21;43.40;;;24.55;;
33413;SDS011;60055;41.884;12.534;2023-02-03T06:51:46;47.03;;;23.35;;
33413;SDS011;60055;41.884;12.534;2023-02-03T06:54:12;49.80;;;24.75;;
33413;SDS011;60055;41.884;12.534;2023-02-03T06:56:38;50.13;;;27.02;;
33413;SDS011;60055;41.884;12.534;2023-02-03T06:59:04;56.72;;;25.92;;
33413;SDS011;60055;41.884;12.534;2023-02-03T07:01:30;53.15;;;26.38;;
33413;SDS011;60055;41.884;12.534;2023-02-03T07:03:56;48.92;;;26.38;;
33413;SDS011;60055;41.884;12.534;2023-02-03T07:06:26;45.45;;;23.88;;
33413;SDS011;60055;41.884;12.534;2023-02-03T07:08:54;48.20;;;24.05;;
33413;SDS011;60055;41.884;12.534;2023-02-03T07:11:20;47.30;;;22.88;;
33413;SDS011;60055;41.884;12.534;2023-02-03T07:13:46;46.20;;;21.88;;
33413;SDS011;60055;41.884;12.534;2023-02-03T07:16:14;42.22;;;20.55;;
33413;SDS011;60055;41.884;12.534;2023-02-03T07:18:40;46.75;;;19.92;;
33413;SDS011;60055;41.884;12.534;2023-02-03T07:21:06;42.90;;;21.08;;
33413;SDS011;60055;41.884;12.534;2023-02-03T07:23:31;47.78;;;20.30;;
33413;SDS011;60055;41.884;12.534;2023-02-03T07:26:00;46.60;;;21.70;;
33413;SDS011;60055;41.884;12.534;2023-02-03T07:28:29;50.42;;;23.00;;
33413;SDS011;60055;41.884;12.534;2023-02-03T07:30:55;48.72;;;23.35;;
33413;SDS011;60055;41.884;12.534;2023-02-03T07:33:21;39.95;;;20.27;;
33413;SDS011;60055;41.884;12.534;2023-02-03T07:35:50;41.75;;;20.23;;
33413;SDS011;60055;41.884;12.534;2023-02-03T07:38:17;39.90;;;21.40;;
33413;SDS011;60055;41.884;12.534;2023-02-03T07:40:43;40.33;;;18.88;;
33413;SDS011;60055;41.884;12.534;2023-02-03T07:43:10;40.17;;;19.85;;
33413;SDS011;60055;41.884;12.534;2023-02-03T07:45:35;42.20;;;19.23;;
33413;SDS011;60055;41.884;12.534;2023-02-03T07:48:01;41.95;;;18.02;;
33413;SDS011;60055;41.884;12.534;2023-02-03T07:50:27;33.47;;;17.10;;
33413;SDS011;60055;41.884;12.534;2023-02-03T07:52:52;37.45;;;16.05;;
33413;SDS011;60055;41.884;12.534;2023-02-03T07:55:19;32.90;;;15.27;;
33413;SDS011;60055;41.884;12.534;2023-02-03T07:57:47;37.28;;;15.57;;
33413;SDS011;60055;41.884;12.534;2023-02-03T08:00:14;38.22;;;15.73;;
33413;SDS011;60055;41.884;12.534;2023-02-03T08:02:41;35.30;;;15.23;;
33413;SDS011;60055;41.884;12.534;2023-02-03T08:05:09;29.05;;;14.35;;
33413;SDS011;60055;41.884;12.534;2023-02-03T08:07:36;36.13;;;14.23;;
33413;SDS011;60055;41.884;12.534;2023-02-03T08:10:02;25.42;;;14.73;;
33413;SDS011;60055;41.884;12.534;2023-02-03T08:12:28;29.17;;;15.55;;
33413;SDS011;60055;41.884;12.534;2023-02-03T08:14:54;36.95;;;16.25;;
33413;SDS011;60055;41.884;12.534;2023-02-03T08:17:20;28.75;;;14.75;;
33413;SDS011;60055;41.884;12.534;2023-02-03T08:19:45;30.63;;;15.38;;
33413;SDS011;60055;41.884;12.534;2023-02-03T08:22:13;33.72;;;16.83;;
33413;SDS011;60055;41.884;12.534;2023-02-03T08:24:42;151.98;;;40.38;;
33413;SDS011;60055;41.884;12.534;2023-02-03T08:27:10;73.68;;;25.63;;
33413;SDS011;60055;41.884;12.534;2023-02-03T08:29:42;48.33;;;19.55;;
33413;SDS011;60055;41.884;12.534;2023-02-03T08:32:14;48.90;;;18.63;;
33413;SDS011;60055;41.884;12.534;2023-02-03T08:34:41;40.08;;;16.60;;
33413;SDS011;60055;41.884;12.534;2023-02-03T08:37:08;40.95;;;17.40;;
33413;SDS011;60055;41.884;12.534;2023-02-03T08:39:35;36.92;;;16.90;;
33413;SDS011;60055;41.884;12.534;2023-02-03T08:42:01;29.40;;;16.05;;
33413;SDS011;60055;41.884;12.534;2023-02-03T08:44:30;31.75;;;16.33;;
33413;SDS011;60055;41.884;12.534;2023-02-03T08:46:56;32.40;;;15.88;;
33413;SDS011;60055;41.884;12.534;2023-02-03T08:49:24;33.58;;;15.43;;
33413;SDS011;60055;41.884;12.534;2023-02-03T08:51:51;33.45;;;14.38;;
33413;SDS011;60055;41.884;12.534;2023-02-03T08:54:17;28.13;;;14.25;;
33413;SDS011;60055;41.884;12.534;2023-02-03T08:56:46;32.72;;;15.63;;
33413;SDS011;60055;41.884;12.534;2023-02-03T08:59:12;27.63;;;14.30;;
33413;SDS011;60055;41.884;12.534;2023-02-03T09:01:39;30.63;;;14.57;;
33413;SDS011;60055;41.884;12.534;2023-02-03T09:04:05;29.88;;;14.57;;
33413;SDS011;60055;41.884;12.534;2023-02-03T09:06:32;31.33;;;15.27;;
33413;SDS011;60055;41.884;12.534;2023-02-03T09:08:59;28.88;;;13.95;;
33413;SDS011;60055;41.884;12.534;2023-02-03T09:11:24;26.58;;;13.20;;
33413;SDS011;60055;41.884;12.534;2023-02-03T09:13:50;27.75;;;13.57;;
33413;SDS011;60055;41.884;12.534;2023-02-03T09:16:16;25.63;;;13.05;;
33413;SDS011;60055;41.884;12.534;2023-02-03T09:18:44;28.75;;;14.07;;
33413;SDS011;60055;41.884;12.534;2023-02-03T09:21:11;31.40;;;13.30;;
33413;SDS011;60055;41.884;12.534;2023-02-03T09:23:38;31.95;;;13.15;;
33413;SDS011;60055;41.884;12.534;2023-02-03T09:26:08;28.10;;;12.57;;
33413;SDS011;60055;41.884;12.534;2023-02-03T09:28:35;30.55;;;12.63;;
33413;SDS011;60055;41.884;12.534;2023-02-03T09:31:02;25.00;;;12.13;;
33413;SDS011;60055;41.884;12.534;2023-02-03T09:33:29;26.92;;;12.55;;
33413;SDS011;60055;41.884;12.534;2023-02-03T09:35:56;23.70;;;12.13;;
33413;SDS011;60055;41.884;12.534;2023-02-03T09:38:26;24.08;;;11.20;;
33413;SDS011;60055;41.884;12.534;2023-02-03T09:40:53;21.77;;;10.80;;
33413;SDS011;60055;41.884;12.534;2023-02-03T09:46:41;24.02;;;10.43;;
33413;SDS011;60055;41.884;12.534;2023-02-03T09:49:16;17.90;;;10.63;;
33413;SDS011;60055;41.884;12.534;2023-02-03T09:54:41;26.65;;;11.68;;
33413;SDS011;60055;41.884;12.534;2023-02-03T09:57:24;25.02;;;11.45;;
33413;SDS011;60055;41.884;12.534;2023-02-03T09:59:53;33.50;;;11.55;;
33413;SDS011;60055;41.884;12.534;2023-02-03T10:05:19;26.85;;;12.50;;
33413;SDS011;60055;41.884;12.534;2023-02-03T10:10:34;22.33;;;11.55;;
33413;SDS011;60055;41.884;12.534;2023-02-03T10:15:53;26.35;;;11.70;;
33413;SDS011;60055;41.884;12.534;2023-02-03T10:18:28;29.52;;;12.15;;
33413;SDS011;60055;41.884;12.534;2023-02-03T10:21:15;22.25;;;10.45;;
33413;SDS011;60055;41.884;12.534;2023-02-03T10:23:46;21.67;;;10.95;;
33413;SDS011;60055;41.884;12.534;2023-02-03T10:26:19;27.08;;;12.80;;
33413;SDS011;60055;41.884;12.534;2023-02-03T10:28:53;32.10;;;15.07;;
33413;SDS011;60055;41.884;12.534;2023-02-03T10:31:22;39.78;;;20.42;;
33413;SDS011;60055;41.884;12.534;2023-02-03T10:33:56;27.15;;;12.35;;
33413;SDS011;60055;41.884;12.534;2023-02-03T10:36:47;26.23;;;11.32;;
33413;SDS011;60055;41.884;12.534;2023-02-03T10:40:03;25.98;;;10.02;;
33413;SDS011;60055;41.884;12.534;2023-02-03T10:42:11;23.65;;;10.02;;
33413;SDS011;60055;41.884;12.534;2023-02-03T10:44:48;24.90;;;10.35;;
33413;SDS011;60055;41.884;12.534;2023-02-03T10:47:22;34.22;;;12.77;;
33413;SDS011;60055;41.884;12.534;2023-02-03T10:49:49;42.63;;;20.83;;
33413;SDS011;60055;41.884;12.534;2023-02-03T10:52:23;37.83;;;17.95;;
33413;SDS011;60055;41.884;12.534;2023-02-03T10:54:51;32.60;;;14.55;;
33413;SDS011;60055;41.884;12.534;2023-02-03T10:57:17;32.05;;;13.82;;
33413;SDS011;60055;41.884;12.534;2023-02-03T10:59:44;26.92;;;10.57;;
33413;SDS011;60055;41.884;12.534;2023-02-03T11:07:42;18.60;;;9.57;;
33413;SDS011;60055;41.884;12.534;2023-02-03T11:13:18;20.15;;;10.10;;
33413;SDS011;60055;41.884;12.534;2023-02-03T11:15:50;21.23;;;9.85;;
33413;SDS011;60055;41.884;12.534;2023-02-03T11:18:24;21.98;;;10.73;;
33413;SDS011;60055;41.884;12.534;2023-02-03T11:20:56;23.42;;;11.27;;
33413;SDS011;60055;41.884;12.534;2023-02-03T11:23:24;30.92;;;12.95;;
33413;SDS011;60055;41.884;12.534;2023-02-03T11:25:52;20.60;;;10.20;;
33413;SDS011;60055;41.884;12.534;2023-02-03T11:28:20;22.98;;;11.45;;
33413;SDS011;60055;41.884;12.534;2023-02-03T11:30:53;17.85;;;10.60;;
33413;SDS011;60055;41.884;12.534;2023-02-03T11:33:24;24.35;;;11.18;;
33413;SDS011;60055;41.884;12.534;2023-02-03T11:35:53;23.67;;;10.27;;
33413;SDS011;60055;41.884;12.534;2023-02-03T11:38:41;24.35;;;10.93;;
33413;SDS011;60055;41.884;12.534;2023-02-03T11:41:15;21.08;;;11.00;;
33413;SDS011;60055;41.884;12.534;2023-02-03T11:46:08;27.35;;;10.95;;
33413;SDS011;60055;41.884;12.534;2023-02-03T12:13:00;31.10;;;14.00;;
33413;SDS011;60055;41.884;12.534;2023-02-03T12:28:53;26.65;;;12.85;;
33413;SDS011;60055;41.884;12.534;2023-02-03T12:34:02;21.55;;;11.90;;
33413;SDS011;60055;41.884;12.534;2023-02-03T12:36:40;27.55;;;11.70;;
33413;SDS011;60055;41.884;12.534;2023-02-03T12:42:16;25.48;;;11.80;;
33413;SDS011;60055;41.884;12.534;2023-02-03T12:45:01;26.00;;;12.95;;
33413;SDS011;60055;41.884;12.534;2023-02-03T12:47:44;28.75;;;14.60;;
33413;SDS011;60055;41.884;12.534;2023-02-03T12:50:17;26.35;;;11.57;;
33413;SDS011;60055;41.884;12.534;2023-02-03T12:53:03;28.02;;;11.35;;
33413;SDS011;60055;41.884;12.534;2023-02-03T12:58:30;25.67;;;10.25;;
33413;SDS011;60055;41.884;12.534;2023-02-03T13:01:21;26.40;;;10.50;;
33413;SDS011;60055;41.884;12.534;2023-02-03T13:07:18;22.60;;;11.85;;
33413;SDS011;60055;41.884;12.534;2023-02-03T13:12:50;22.23;;;10.63;;
33413;SDS011;60055;41.884;12.534;2023-02-03T13:17:56;18.73;;;9.20;;
33413;SDS011;60055;41.884;12.534;2023-02-03T13:20:28;24.05;;;8.93;;
33413;SDS011;60055;41.884;12.534;2023-02-03T13:22:59;24.30;;;8.77;;
33413;SDS011;60055;41.884;12.534;2023-02-03T13:25:30;23.25;;;10.15;;
33413;SDS011;60055;41.884;12.534;2023-02-03T13:36:39;19.58;;;8.68;;
33413;SDS011;60055;41.884;12.534;2023-02-03T13:42:33;27.73;;;12.38;;
33413;SDS011;60055;41.884;12.534;2023-02-03T13:47:33;33.10;;;16.85;;
33413;SDS011;60055;41.884;12.534;2023-02-03T13:49:59;23.63;;;11.52;;
33413;SDS011;60055;41.884;12.534;2023-02-03T13:55:00;21.25;;;10.15;;
33413;SDS011;60055;41.884;12.534;2023-02-03T14:00:00;23.80;;;10.07;;
33413;SDS011;60055;41.884;12.534;2023-02-03T14:02:28;22.02;;;10.40;;
33413;SDS011;60055;41.884;12.534;2023-02-03T14:05:06;22.98;;;10.25;;
33413;SDS011;60055;41.884;12.534;2023-02-03T14:07:55;41.33;;;14.85;;
33413;SDS011;60055;41.884;12.534;2023-02-03T14:10:21;25.38;;;10.75;;
33413;SDS011;60055;41.884;12.534;2023-02-03T14:15:20;26.83;;;10.48;;
33413;SDS011;60055;41.884;12.534;2023-02-03T14:20:56;21.75;;;8.85;;
33413;SDS011;60055;41.884;12.534;2023-02-03T14:23:37;24.90;;;9.68;;
33413;SDS011;60055;41.884;12.534;2023-02-03T14:26:12;33.47;;;10.35;;
33413;SDS011;60055;41.884;12.534;2023-02-03T14:28:42;26.27;;;8.68;;
33413;SDS011;60055;41.884;12.534;2023-02-03T14:31:11;21.00;;;8.02;;
33413;SDS011;60055;41.884;12.534;2023-02-03T14:33:44;27.50;;;8.48;;
33413;SDS011;60055;41.884;12.534;2023-02-03T14:58:15;20.42;;;6.55;;
33413;SDS011;60055;41.884;12.534;2023-02-03T15:00:40;20.13;;;8.15;;
33413;SDS011;60055;41.884;12.534;2023-02-03T15:05:39;19.73;;;7.82;;
33413;SDS011;60055;41.884;12.534;2023-02-03T15:11:27;22.10;;;9.07;;
33413;SDS011;60055;41.884;12.534;2023-02-03T15:14:13;19.73;;;8.02;;
33413;SDS011;60055;41.884;12.534;2023-02-03T15:16:40;22.38;;;7.65;;
33413;SDS011;60055;41.884;12.534;2023-02-03T15:19:17;17.42;;;6.53;;
33413;SDS011;60055;41.884;12.534;2023-02-03T15:21:46;15.50;;;5.90;;
33413;SDS011;60055;41.884;12.534;2023-02-03T15:24:12;17.80;;;6.68;;
33413;SDS011;60055;41.884;12.534;2023-02-03T15:26:50;22.00;;;7.18;;
33413;SDS011;60055;41.884;12.534;2023-02-03T15:29:27;14.63;;;5.63;;
33413;SDS011;60055;41.884;12.534;2023-02-03T15:31:58;17.65;;;5.63;;
33413;SDS011;60055;41.884;12.534;2023-02-03T15:34:40;16.35;;;5.63;;
33413;SDS011;60055;41.884;12.534;2023-02-03T15:37:12;14.75;;;5.20;;
33413;SDS011;60055;41.884;12.534;2023-02-03T15:39:51;13.70;;;5.35;;
33413;SDS011;60055;41.884;12.534;2023-02-03T15:42:22;13.00;;;4.78;;
33413;SDS011;60055;41.884;12.534;2023-02-03T15:44:53;13.68;;;5.63;;
33413;SDS011;60055;41.884;12.534;2023-02-03T15:47:37;12.35;;;4.60;;
33413;SDS011;60055;41.884;12.534;2023-02-03T15:50:21;15.73;;;5.00;;
33413;SDS011;60055;41.884;12.534;2023-02-03T15:52:51;13.48;;;4.65;;
33413;SDS011;60055;41.884;12.534;2023-02-03T15:55:34;13.45;;;4.90;;
33413;SDS011;60055;41.884;12.534;2023-02-03T15:58:10;14.38;;;4.85;;
33413;SDS011;60055;41.884;12.534;2023-02-03T16:01:00;20.17;;;4.85;;
33413;SDS011;60055;41.884;12.534;2023-02-03T16:03:35;16.08;;;5.60;;
33413;SDS011;60055;41.884;12.534;2023-02-03T16:06:17;18.02;;;5.72;;
33413;SDS011;60055;41.884;12.534;2023-02-03T16:08:45;17.33;;;5.50;;
33413;SDS011;60055;41.884;12.534;2023-02-03T16:11:22;16.30;;;5.60;;
33413;SDS011;60055;41.884;12.534;2023-02-03T16:13:56;16.48;;;5.45;;
33413;SDS011;60055;41.884;12.534;2023-02-03T16:16:27;15.80;;;5.70;;
33413;SDS011;60055;41.884;12.534;2023-02-03T16:18:56;17.15;;;6.53;;
33413;SDS011;60055;41.884;12.534;2023-02-03T16:23:56;18.85;;;6.95;;
33413;SDS011;60055;41.884;12.534;2023-02-03T16:26:23;18.80;;;7.55;;
33413;SDS011;60055;41.884;12.534;2023-02-03T16:31:46;18.45;;;5.35;;
33413;SDS011;60055;41.884;12.534;2023-02-03T16:34:31;18.60;;;5.38;;
33413;SDS011;60055;41.884;12.534;2023-02-03T16:40:06;19.88;;;5.93;;
33413;SDS011;60055;41.884;12.534;2023-02-03T16:42:51;14.23;;;5.28;;
33413;SDS011;60055;41.884;12.534;2023-02-03T16:48:20;23.83;;;5.40;;
33413;SDS011;60055;41.884;12.534;2023-02-03T16:53:34;28.02;;;6.15;;
33413;SDS011;60055;41.884;12.534;2023-02-03T16:56:00;30.38;;;12.45;;
33413;SDS011;60055;41.884;12.534;2023-02-03T16:58:28;34.38;;;16.30;;
33413;SDS011;60055;41.884;12.534;2023-02-03T17:00:54;27.15;;;8.90;;
33413;SDS011;60055;41.884;12.534;2023-02-03T17:03:23;18.63;;;7.47;;
33413;SDS011;60055;41.884;12.534;2023-02-03T17:05:51;19.25;;;6.68;;
33413;SDS011;60055;41.884;12.534;2023-02-03T17:08:19;20.58;;;5.90;;
33413;SDS011;60055;41.884;12.534;2023-02-03T17:10:46;20.70;;;7.20;;
33413;SDS011;60055;41.884;12.534;2023-02-03T17:13:15;15.63;;;6.93;;
33413;SDS011;60055;41.884;12.534;2023-02-03T17:15:43;18.63;;;6.97;;
33413;SDS011;60055;41.884;12.534;2023-02-03T17:18:10;18.02;;;6.63;;
33413;SDS011;60055;41.884;12.534;2023-02-03T17:20:38;18.58;;;6.57;;
33413;SDS011;60055;41.884;12.534;2023-02-03T17:23:05;16.40;;;6.50;;
33413;SDS011;60055;41.884;12.534;2023-02-03T17:25:32;21.70;;;7.45;;
33413;SDS011;60055;41.884;12.534;2023-02-03T17:28:00;18.83;;;8.73;;